createdAt,value
2019-01-04T00:04:37.898Z,34.37
2019-01-04T00:07:09.915Z,32.67
2019-01-04T00:09:41.891Z,33.10
2019-01-04T00:12:13.903Z,36.10
2019-01-04T00:14:45.893Z,36.63
2019-01-04T00:17:17.915Z,37.67
2019-01-04T00:19:49.949Z,39.73
2019-01-04T00:22:21.918Z,43.80
2019-01-04T00:24:53.927Z,43.37
2019-01-04T00:27:25.944Z,39.90
2019-01-04T00:29:57.982Z,40.10
2019-01-04T00:32:29.955Z,42.43
2019-01-04T00:35:01.944Z,37.60
2019-01-04T00:37:33.900Z,39.20
2019-01-04T00:40:06.767Z,43.80
2019-01-04T00:42:38.753Z,49.30
2019-01-04T00:45:10.772Z,38.53
2019-01-04T00:47:42.766Z,36.07
2019-01-04T00:50:14.761Z,35.33
2019-01-04T00:52:46.754Z,41.93
2019-01-04T00:55:57.739Z,43.93
2019-01-04T00:59:08.700Z,45.63
2019-01-04T01:02:19.590Z,50.47
2019-01-04T01:05:30.502Z,39.80
2019-01-04T01:08:41.408Z,40.40
2019-01-04T01:11:52.316Z,43.80
2019-01-04T01:15:03.226Z,46.87
2019-01-04T01:18:14.153Z,40.43
2019-01-04T01:21:12.332Z,41.33
2019-01-04T01:24:23.223Z,39.47
2019-01-04T01:27:29.496Z,35.70
2019-01-04T01:30:40.414Z,40.10
2019-01-04T01:33:51.284Z,45.57
2019-01-04T01:37:12.860Z,37.13
2019-01-04T01:40:23.773Z,42.77
2019-01-04T01:43:34.668Z,34.83
2019-01-04T01:46:45.575Z,39.03
2019-01-04T01:49:56.435Z,42.03
2019-01-04T01:52:32.598Z,41.70
2019-01-04T01:55:04.609Z,34.27
2019-01-04T01:57:36.617Z,37.40
2019-01-04T02:00:08.791Z,38.50
2019-01-04T02:02:40.803Z,37.23
2019-01-04T02:05:12.749Z,38.23
2019-01-04T02:07:44.760Z,36.93
2019-01-04T02:10:16.792Z,34.03
2019-01-04T02:12:48.821Z,36.97
2019-01-04T02:15:20.771Z,35.97
2019-01-04T02:17:52.818Z,33.87
2019-01-04T02:20:24.835Z,31.83
2019-01-04T02:22:56.813Z,34.03
2019-01-04T02:25:28.802Z,33.87
2019-01-04T02:28:00.836Z,29.00
2019-01-04T02:30:32.823Z,31.13
2019-01-04T02:33:04.832Z,31.70
2019-01-04T02:35:36.802Z,37.93
2019-01-04T02:38:08.806Z,34.67
2019-01-04T02:40:40.811Z,29.30
2019-01-04T02:43:12.782Z,33.70
2019-01-04T02:45:44.770Z,30.47
2019-01-04T02:48:16.739Z,31.73
2019-01-04T02:50:48.726Z,31.33
2019-01-04T02:53:20.702Z,36.43
2019-01-04T02:55:52.681Z,36.27
2019-01-04T02:58:24.639Z,40.57
2019-01-04T03:00:56.623Z,36.90
2019-01-04T03:03:28.587Z,33.47
2019-01-04T03:06:00.579Z,35.83
2019-01-04T03:08:32.535Z,36.37
2019-01-04T03:11:04.511Z,34.07
2019-01-04T03:13:36.503Z,33.20
2019-01-04T03:16:08.494Z,36.30
2019-01-04T03:18:40.459Z,35.90
2019-01-04T03:21:12.462Z,37.87
2019-01-04T03:23:44.419Z,35.87
2019-01-04T03:26:16.412Z,37.50
2019-01-04T03:28:48.403Z,39.80
2019-01-04T03:31:20.386Z,40.07
2019-01-04T03:33:52.371Z,37.47
2019-01-04T03:36:24.367Z,40.13
2019-01-04T03:38:56.356Z,37.07
2019-01-04T03:41:28.349Z,41.80
2019-01-04T03:44:00.296Z,39.57
2019-01-04T03:46:32.282Z,40.97
2019-01-04T03:49:04.246Z,39.90
2019-01-04T03:51:36.234Z,37.97
2019-01-04T03:54:08.201Z,40.33
2019-01-04T03:56:40.187Z,36.43
2019-01-04T03:59:12.180Z,36.97
2019-01-04T04:01:44.153Z,38.03
2019-01-04T04:04:16.149Z,36.07
2019-01-04T04:06:48.135Z,36.80
2019-01-04T04:09:20.144Z,38.17
2019-01-04T04:11:52.108Z,36.20
2019-01-04T04:14:24.930Z,33.93
2019-01-04T04:16:56.918Z,37.13
2019-01-04T04:19:28.894Z,40.03
2019-01-04T04:22:00.882Z,35.97
2019-01-04T04:24:32.869Z,38.53
2019-01-04T04:27:04.845Z,36.63
2019-01-04T04:29:36.835Z,32.87
2019-01-04T04:32:08.803Z,38.60
2019-01-04T04:34:40.787Z,43.93
2019-01-04T04:37:12.784Z,37.60
2019-01-04T04:39:44.765Z,41.40
2019-01-04T04:42:16.725Z,37.47
2019-01-04T04:44:48.724Z,39.00
2019-01-04T04:47:20.679Z,41.97
2019-01-04T04:49:52.657Z,35.53
2019-01-04T04:52:24.619Z,36.47
2019-01-04T04:54:56.676Z,39.43
2019-01-04T04:57:28.636Z,40.73
2019-01-04T05:00:00.632Z,37.23
2019-01-04T05:02:32.609Z,41.43
2019-01-04T05:05:04.721Z,34.90
2019-01-04T05:07:36.663Z,42.33
2019-01-04T05:10:08.655Z,38.37
2019-01-04T05:12:40.609Z,40.03
2019-01-04T05:15:12.613Z,42.07
2019-01-04T05:17:44.620Z,38.97
2019-01-04T05:20:16.620Z,38.20
2019-01-04T05:22:48.680Z,36.83
2019-01-04T05:25:20.664Z,40.13
2019-01-04T05:27:52.635Z,36.63
2019-01-04T05:30:24.621Z,36.60
2019-01-04T05:32:56.583Z,32.87
2019-01-04T05:35:28.560Z,33.07
2019-01-04T05:38:00.552Z,27.07
2019-01-04T05:40:32.552Z,30.67
2019-01-04T05:43:04.519Z,26.60
2019-01-04T05:45:36.499Z,25.73
2019-01-04T05:48:08.480Z,27.53
2019-01-04T05:50:40.437Z,28.07
2019-01-04T05:53:12.422Z,28.70
2019-01-04T05:55:44.370Z,28.80
2019-01-04T05:58:16.353Z,30.37
2019-01-04T06:00:48.327Z,26.47
2019-01-04T06:03:20.318Z,27.10
2019-01-04T06:05:52.273Z,28.10
2019-01-04T06:08:24.279Z,28.73
2019-01-04T06:10:56.244Z,28.73
2019-01-04T06:13:28.230Z,29.37
2019-01-04T06:16:00.195Z,34.13
2019-01-04T06:18:32.195Z,28.10
2019-01-04T06:21:04.243Z,29.83
2019-01-04T06:23:36.250Z,29.63
2019-01-04T06:26:08.204Z,35.47
2019-01-04T06:28:40.242Z,29.30
2019-01-04T06:31:12.210Z,34.60
2019-01-04T06:33:44.243Z,33.87
2019-01-04T06:36:16.220Z,38.47
2019-01-04T06:38:48.208Z,35.30
2019-01-04T06:41:20.167Z,37.50
2019-01-04T06:43:52.209Z,40.47
2019-01-04T06:46:24.227Z,39.83
2019-01-04T06:48:56.212Z,34.80
2019-01-04T06:51:28.292Z,39.57
2019-01-04T06:54:00.342Z,37.77
2019-01-04T06:56:32.303Z,37.00
2019-01-04T06:59:04.346Z,38.70
2019-01-04T07:01:36.320Z,36.23
2019-01-04T07:04:08.353Z,40.97
2019-01-04T07:06:40.360Z,39.00
2019-01-04T07:09:12.391Z,40.70
2019-01-04T07:11:44.377Z,35.97
2019-01-04T07:14:16.359Z,41.07
2019-01-04T07:16:48.508Z,40.17
2019-01-04T07:19:20.507Z,38.63
2019-01-04T07:21:52.546Z,39.40
2019-01-04T07:24:24.534Z,40.37
2019-01-04T07:26:56.587Z,37.13
2019-01-04T07:29:28.571Z,44.17
2019-01-04T07:32:00.675Z,45.00
2019-01-04T07:34:32.667Z,40.00
2019-01-04T07:37:04.649Z,44.77
2019-01-04T07:39:36.763Z,39.33
2019-01-04T07:42:08.790Z,40.57
2019-01-04T07:44:40.780Z,41.83
2019-01-04T07:47:12.765Z,38.10
2019-01-04T07:49:44.775Z,36.37
2019-01-04T07:52:17.297Z,38.80
2019-01-04T07:54:49.400Z,38.53
2019-01-04T07:57:21.383Z,49.00
2019-01-04T07:59:53.385Z,43.93
2019-01-04T08:02:45.416Z,39.20
2019-01-04T08:05:21.767Z,44.00
2019-01-04T08:07:53.830Z,38.20
2019-01-04T08:10:25.840Z,41.30
2019-01-04T08:12:57.860Z,40.27
2019-01-04T08:15:29.888Z,38.67
2019-01-04T08:18:01.867Z,37.97
2019-01-04T08:20:33.876Z,42.63
2019-01-04T08:23:05.877Z,40.70
2019-01-04T08:25:37.860Z,42.97
2019-01-04T08:28:09.834Z,43.37
2019-01-04T08:30:41.796Z,39.90
2019-01-04T08:33:13.764Z,33.70
2019-01-04T08:35:45.777Z,37.83
2019-01-04T08:38:17.720Z,37.53
2019-01-04T08:40:49.724Z,36.40
2019-01-04T08:43:21.734Z,42.13
2019-01-04T08:45:53.717Z,46.60
2019-01-04T08:48:25.679Z,47.57
2019-01-04T08:50:57.677Z,45.20
2019-01-04T08:53:54.787Z,42.33
2019-01-04T08:56:28.786Z,45.27
2019-01-04T08:59:00.751Z,41.90
2019-01-04T09:01:32.748Z,36.90
2019-01-04T09:04:04.714Z,36.07
2019-01-04T09:06:36.749Z,39.67
2019-01-04T09:09:08.732Z,42.03
2019-01-04T09:11:40.716Z,40.33
2019-01-04T09:14:12.706Z,48.73
2019-01-04T09:16:44.755Z,44.07
2019-01-04T09:19:16.747Z,36.27
2019-01-04T09:21:48.746Z,45.73
2019-01-04T09:24:20.735Z,41.37
2019-01-04T09:26:52.879Z,35.93
2019-01-04T09:29:24.845Z,40.27
2019-01-04T09:31:56.855Z,38.30
2019-01-04T09:34:28.866Z,42.40
2019-01-04T09:37:00.872Z,40.67
2019-01-04T09:39:32.886Z,38.10
2019-01-04T09:42:10.388Z,41.27
2019-01-04T09:44:43.418Z,42.30
2019-01-04T09:47:15.438Z,43.00
2019-01-04T09:49:47.442Z,45.67
2019-01-04T09:52:19.470Z,43.27
2019-01-04T09:54:51.575Z,40.43
2019-01-04T09:57:23.834Z,37.47
2019-01-04T09:59:55.832Z,37.23
2019-01-04T10:02:27.869Z,43.13
2019-01-04T10:04:59.872Z,38.60
2019-01-04T10:07:31.885Z,41.10
2019-01-04T10:10:05.199Z,40.63
2019-01-04T10:12:38.560Z,43.20
2019-01-04T10:15:15.327Z,43.80
2019-01-04T10:17:47.361Z,39.17
2019-01-04T10:20:19.417Z,42.23
2019-01-04T10:22:51.460Z,46.93
2019-01-04T10:25:23.695Z,39.90
2019-01-04T10:27:55.862Z,38.63
2019-01-04T10:30:27.907Z,40.97
2019-01-04T10:32:59.922Z,42.00
2019-01-04T10:35:32.036Z,40.73
2019-01-04T10:38:04.128Z,43.10
2019-01-04T10:40:36.144Z,42.10
2019-01-04T10:43:08.151Z,36.70
2019-01-04T10:45:40.384Z,36.83
2019-01-04T10:48:12.408Z,35.67
2019-01-04T10:50:44.412Z,55.83
2019-01-04T10:53:16.729Z,37.33
2019-01-04T10:55:48.750Z,38.07
2019-01-04T10:58:20.730Z,35.27
2019-01-04T11:00:52.779Z,35.90
2019-01-04T11:03:24.753Z,33.17
2019-01-04T11:05:56.756Z,36.57
2019-01-04T11:08:28.724Z,36.13
2019-01-04T11:11:00.718Z,36.93
2019-01-04T11:13:32.801Z,35.63
2019-01-04T11:16:04.818Z,35.10
2019-01-04T11:18:36.885Z,39.10
2019-01-04T11:21:11.273Z,42.47
2019-01-04T11:24:31.059Z,62.37
2019-01-04T11:27:12.788Z,67.53
2019-01-04T11:30:35.816Z,49.93
2019-01-04T11:33:20.662Z,36.90
2019-01-04T11:36:22.263Z,35.53
2019-01-04T11:39:34.589Z,35.83
2019-01-04T11:42:42.589Z,38.60
2019-01-04T11:45:49.329Z,38.70
2019-01-04T11:49:08.824Z,37.07
2019-01-04T11:52:30.972Z,32.60
2019-01-04T11:54:59.087Z,34.10
2019-01-04T11:57:31.053Z,33.80
2019-01-04T12:00:04.398Z,30.10
2019-01-04T12:02:36.473Z,24.90
2019-01-04T12:05:09.936Z,30.20
2019-01-04T12:07:41.959Z,29.37
2019-01-04T12:10:13.980Z,31.00
2019-01-04T12:12:46.010Z,28.53
2019-01-04T12:15:18.012Z,26.63
2019-01-04T12:17:50.060Z,26.43
2019-01-04T12:20:22.808Z,24.77
2019-01-04T12:22:54.845Z,26.50
2019-01-04T12:25:26.802Z,22.27
2019-01-04T12:27:58.805Z,26.73
2019-01-04T12:30:30.811Z,26.23
2019-01-04T12:33:03.315Z,21.90
2019-01-04T12:35:35.379Z,26.73
2019-01-04T12:38:07.357Z,23.57
2019-01-04T12:40:39.467Z,27.43
2019-01-04T12:43:11.468Z,25.93
2019-01-04T12:45:44.636Z,26.17
2019-01-04T12:48:16.671Z,25.80
2019-01-04T12:50:48.670Z,26.93
2019-01-04T12:53:20.693Z,24.67
2019-01-04T12:55:52.711Z,26.53
2019-01-04T12:58:24.733Z,27.47
2019-01-04T13:00:56.746Z,31.00
2019-01-04T13:03:28.765Z,30.77
2019-01-04T13:06:00.817Z,24.07
2019-01-04T13:08:32.831Z,25.50
2019-01-04T13:11:04.853Z,26.70
2019-01-04T13:13:37.670Z,27.63
2019-01-04T13:16:09.664Z,30.50
2019-01-04T13:18:41.714Z,27.37
2019-01-04T13:21:13.958Z,27.23
2019-01-04T13:23:47.273Z,33.70
2019-01-04T13:26:29.946Z,29.67
2019-01-04T13:29:01.948Z,28.20
2019-01-04T13:31:33.979Z,28.33
2019-01-04T13:34:05.991Z,26.53
2019-01-04T13:36:38.041Z,27.90
2019-01-04T13:39:13.781Z,31.70
2019-01-04T13:41:45.891Z,29.93
2019-01-04T13:44:17.900Z,28.97
2019-01-04T13:46:49.931Z,28.30
2019-01-04T13:49:21.910Z,27.60
2019-01-04T13:51:53.921Z,30.47
2019-01-04T13:54:27.459Z,28.90
2019-01-04T13:56:59.540Z,29.03
2019-01-04T13:59:31.612Z,26.80
2019-01-04T14:02:03.644Z,25.50
2019-01-04T14:04:35.640Z,30.20
2019-01-04T14:07:08.127Z,31.90
2019-01-04T14:09:40.163Z,28.87
2019-01-04T14:12:12.215Z,24.77
2019-01-04T14:14:44.200Z,29.03
2019-01-04T14:17:17.405Z,27.87
2019-01-04T14:19:50.207Z,27.40
2019-01-04T14:22:22.306Z,28.30
2019-01-04T14:24:54.303Z,31.57
2019-01-04T14:27:26.350Z,36.03
2019-01-04T14:29:58.391Z,28.40
2019-01-04T14:32:30.433Z,27.87
2019-01-04T14:35:02.453Z,25.13
2019-01-04T14:37:34.449Z,28.53
2019-01-04T14:40:07.915Z,30.50
2019-01-04T14:42:39.954Z,27.20
2019-01-04T14:45:12.040Z,28.43
2019-01-04T14:47:44.070Z,27.90
2019-01-04T14:50:16.152Z,29.90
2019-01-04T14:52:48.149Z,31.83
2019-01-04T14:55:20.246Z,27.20
2019-01-04T14:57:52.273Z,26.03
2019-01-04T15:00:24.300Z,27.30
2019-01-04T15:02:56.288Z,27.83
2019-01-04T15:05:28.321Z,28.13
2019-01-04T15:08:00.333Z,25.40
2019-01-04T15:10:32.368Z,25.70
2019-01-04T15:13:08.492Z,29.20
2019-01-04T15:15:40.501Z,26.73
2019-01-04T15:18:12.628Z,28.50
2019-01-04T15:20:44.618Z,24.13
2019-01-04T15:23:16.653Z,24.40
2019-01-04T15:25:48.703Z,31.07
2019-01-04T15:28:20.722Z,24.33
2019-01-04T15:30:53.865Z,21.67
2019-01-04T15:33:25.898Z,21.97
2019-01-04T15:35:57.983Z,27.17
2019-01-04T15:38:36.057Z,30.40
2019-01-04T15:41:04.025Z,29.30
2019-01-04T15:43:36.312Z,27.67
2019-01-04T15:46:08.355Z,23.17
2019-01-04T15:48:40.392Z,24.53
2019-01-04T15:51:12.396Z,27.73
2019-01-04T15:53:44.426Z,24.23
2019-01-04T15:56:16.456Z,30.43
2019-01-04T15:58:51.115Z,23.50
2019-01-04T16:01:23.176Z,25.37
2019-01-04T16:03:55.178Z,24.27
2019-01-04T16:06:27.217Z,25.33
2019-01-04T16:08:59.214Z,26.67
2019-01-04T16:11:31.264Z,24.53
2019-01-04T16:14:03.253Z,25.60
2019-01-04T16:16:35.334Z,21.93
2019-01-04T16:19:07.422Z,27.07
2019-01-04T16:21:39.414Z,22.40
2019-01-04T16:24:11.432Z,21.90
2019-01-04T16:26:43.435Z,19.13
2019-01-04T16:29:15.501Z,22.57
2019-01-04T16:31:47.536Z,25.03
2019-01-04T16:34:19.593Z,26.47
2019-01-04T16:36:51.669Z,27.90
2019-01-04T16:39:23.716Z,26.67
2019-01-04T16:41:55.732Z,25.20
2019-01-04T16:44:31.303Z,33.03
2019-01-04T16:47:03.335Z,33.03
2019-01-04T16:49:54.914Z,32.77
2019-01-04T16:52:28.685Z,28.67
2019-01-04T16:55:00.755Z,25.87
2019-01-04T16:57:32.800Z,29.13
2019-01-04T17:00:46.179Z,28.47
2019-01-04T17:03:18.217Z,30.93
2019-01-04T17:08:41.880Z,27.80
2019-01-04T17:11:13.934Z,25.00
2019-01-04T17:16:37.551Z,30.03
2019-01-04T17:19:09.638Z,31.50
2019-01-04T17:21:41.664Z,29.93
2019-01-04T17:24:13.679Z,34.87
2019-01-04T17:26:45.695Z,33.60
2019-01-04T17:29:17.701Z,37.43
2019-01-04T17:31:49.731Z,33.77
2019-01-04T17:34:21.774Z,32.47
2019-01-04T17:36:53.853Z,33.37
2019-01-04T17:39:25.855Z,33.60
2019-01-04T17:41:57.894Z,29.97
2019-01-04T17:44:29.963Z,29.10
2019-01-04T17:47:18.846Z,29.17
2019-01-04T17:49:50.867Z,24.93
2019-01-04T17:52:22.914Z,20.13
2019-01-04T17:54:54.910Z,39.20
2019-01-04T17:57:26.948Z,31.77
2019-01-04T17:59:58.978Z,31.07
2019-01-04T18:02:31.004Z,28.27
2019-01-04T18:05:03.084Z,28.90
2019-01-04T18:07:35.126Z,32.97
2019-01-04T18:10:07.806Z,29.37
2019-01-04T18:12:39.875Z,35.73
2019-01-04T18:15:11.902Z,31.57
2019-01-04T18:17:44.529Z,27.83
2019-01-04T18:20:16.664Z,26.70
2019-01-04T18:22:48.719Z,28.53
2019-01-04T18:25:20.822Z,29.47
2019-01-04T18:27:52.869Z,27.87
2019-01-04T18:30:24.939Z,32.37
2019-01-04T18:32:56.995Z,30.00
2019-01-04T18:35:29.026Z,29.07
2019-01-04T18:38:01.079Z,26.77
2019-01-04T18:43:24.806Z,26.10
2019-01-04T18:45:56.872Z,28.60
2019-01-04T18:48:28.947Z,27.13
2019-01-04T18:51:01.001Z,32.57
2019-01-04T18:53:33.099Z,29.13
2019-01-04T18:56:05.148Z,39.23
2019-01-04T18:58:37.212Z,32.50
2019-01-04T19:01:13.679Z,31.27
2019-01-04T19:03:43.212Z,31.27
2019-01-04T19:06:15.253Z,27.07
2019-01-04T19:08:47.361Z,31.57
2019-01-04T19:11:19.413Z,38.77
2019-01-04T19:13:51.457Z,27.83
2019-01-04T19:16:23.508Z,35.53
2019-01-04T19:18:55.548Z,27.50
2019-01-04T19:21:28.684Z,37.67
2019-01-04T19:24:00.697Z,33.20
2019-01-04T19:26:32.762Z,30.93
2019-01-04T19:29:04.804Z,34.93
2019-01-04T19:31:36.883Z,35.00
2019-01-04T19:34:08.998Z,34.83
2019-01-04T19:36:41.057Z,31.07
2019-01-04T19:39:13.117Z,32.43
2019-01-04T19:41:45.165Z,33.30
2019-01-04T19:44:17.229Z,32.13
2019-01-04T19:46:49.282Z,33.93
2019-01-04T19:49:21.301Z,31.77
2019-01-04T19:51:53.369Z,28.87
2019-01-04T19:54:25.404Z,29.33
2019-01-04T19:56:58.506Z,35.77
2019-01-04T19:59:32.960Z,34.90
2019-01-04T20:02:05.052Z,32.03
2019-01-04T20:04:37.095Z,34.43
2019-01-04T20:08:26.558Z,36.93
2019-01-04T20:12:06.115Z,30.80
2019-01-04T20:15:44.969Z,30.80
2019-01-04T20:18:52.352Z,37.57
2019-01-04T20:21:42.679Z,34.73
2019-01-04T20:24:34.288Z,34.23
2019-01-04T20:27:23.651Z,30.13
2019-01-04T20:30:14.197Z,32.73
2019-01-04T20:33:14.994Z,27.73
2019-01-04T20:36:05.496Z,29.77
2019-01-04T20:38:56.332Z,30.87
2019-01-04T20:41:46.921Z,28.13
2019-01-04T20:44:37.555Z,31.63
2019-01-04T20:47:33.266Z,33.00
2019-01-04T20:50:30.784Z,31.03
2019-01-04T20:53:21.135Z,27.47
2019-01-04T20:56:11.692Z,33.33
2019-01-04T20:59:05.726Z,30.73
2019-01-04T21:02:00.361Z,29.07
2019-01-04T21:04:50.836Z,30.40
2019-01-04T21:07:52.078Z,30.40
2019-01-04T21:10:53.000Z,35.23
2019-01-04T21:13:44.312Z,36.60
2019-01-04T21:16:34.340Z,31.13
2019-01-04T21:19:19.795Z,36.93
2019-01-04T21:22:17.642Z,36.13
2019-01-04T21:25:27.680Z,34.70
2019-01-04T21:28:17.890Z,32.43
2019-01-04T21:31:12.578Z,32.50
2019-01-04T21:34:03.109Z,32.73
2019-01-04T21:37:00.771Z,36.90
2019-01-04T21:39:52.488Z,33.93
2019-01-04T21:42:47.090Z,36.80
2019-01-04T21:45:56.945Z,32.27
2019-01-04T21:49:03.716Z,33.23
2019-01-04T21:51:55.354Z,33.43
2019-01-04T21:54:50.017Z,33.70
2019-01-04T21:57:46.822Z,31.87
2019-01-04T22:00:41.434Z,34.20
2019-01-04T22:03:48.467Z,34.63
2019-01-04T22:06:38.687Z,32.93
2019-01-04T22:09:48.556Z,47.63
2019-01-04T22:12:39.033Z,41.00
2019-01-04T22:15:34.601Z,35.93
2019-01-04T22:18:32.474Z,36.23
2019-01-04T22:21:22.632Z,32.83
2019-01-04T22:24:09.226Z,30.97
2019-01-04T22:27:09.931Z,32.27
2019-01-04T22:30:10.509Z,32.50
2019-01-04T22:33:00.896Z,33.87
2019-01-04T22:35:51.595Z,32.47
2019-01-04T22:39:01.641Z,33.67
2019-01-04T22:42:05.200Z,34.50
2019-01-04T22:45:08.989Z,35.97
2019-01-04T22:48:09.680Z,34.17
2019-01-04T22:51:07.162Z,37.17
2019-01-04T22:53:57.322Z,36.43
2019-01-04T22:56:44.319Z,36.97
2019-01-04T22:59:34.639Z,34.93
2019-01-04T23:02:41.549Z,33.37
2019-01-04T23:05:32.226Z,34.27
2019-01-04T23:08:20.399Z,35.77
2019-01-04T23:11:10.825Z,35.33
2019-01-04T23:14:08.255Z,34.90
2019-01-04T23:17:18.260Z,35.37
2019-01-04T23:20:19.356Z,36.87
2019-01-04T23:23:09.698Z,36.97
2019-01-04T23:25:59.983Z,38.73
2019-01-04T23:28:50.517Z,38.33
2019-01-04T23:31:44.640Z,35.43
2019-01-04T23:34:36.252Z,33.70
2019-01-04T23:37:43.248Z,30.60
2019-01-04T23:40:53.186Z,30.73
2019-01-04T23:43:43.476Z,34.47
2019-01-04T23:46:40.886Z,31.97
2019-01-04T23:49:35.474Z,33.67
2019-01-04T23:52:25.769Z,35.70
2019-01-04T23:55:16.415Z,29.57
2019-01-04T23:58:07.116Z,31.33
